Spring Park, Minnesota
Current Conditions -  °F | °C
As of 12:53 AM on Saturday 29 Nov 2014 (Local Time) from KFCM Reporting Station
Clear Clear  
Wind Chill: 13°   Ceiling: Unl
Heat Index: 23°   Visibility: 8mi
Dew Point: 19°   Wind: 9mph
Humidity: 85%   Direction: 110°ESE
Pressure: 29.62"   Gusts: NA
Location:  44.94°N, 93.63°W
Report Text: KFCM 290653Z 11008KT 8SM CLR M05/M07 A2962 RMK AO2 SLP043 T10501072
Loading
Personal Weather Stations






























Interactive Weather Map New forecast layout! Learn more

10-Day Weather Forecast

Advertisements
Track Severe Weather on mobile